sensor_id;sensor_type;location;lat;lon;timestamp;temperature;humidity
76211;DHT22;65003;49.518;11.280;2023-04-25T00:00:20;9.50;87.10
76211;DHT22;65003;49.518;11.280;2023-04-25T00:02:46;9.50;86.70
76211;DHT22;65003;49.518;11.280;2023-04-25T00:05:13;9.50;86.30
76211;DHT22;65003;49.518;11.280;2023-04-25T00:07:40;9.50;86.10
76211;DHT22;65003;49.518;11.280;2023-04-25T00:10:08;9.40;86.40
76211;DHT22;65003;49.518;11.280;2023-04-25T00:12:35;9.30;86.80
76211;DHT22;65003;49.518;11.280;2023-04-25T00:15:01;8.90;88.10
76211;DHT22;65003;49.518;11.280;2023-04-25T00:17:28;8.70;89.50
76211;DHT22;65003;49.518;11.280;2023-04-25T00:19:54;8.60;90.20
76211;DHT22;65003;49.518;11.280;2023-04-25T00:22:21;8.50;90.50
76211;DHT22;65003;49.518;11.280;2023-04-25T00:24:48;8.60;90.60
76211;DHT22;65003;49.518;11.280;2023-04-25T00:27:14;8.60;90.80
76211;DHT22;65003;49.518;11.280;2023-04-25T00:29:41;8.90;90.60
76211;DHT22;65003;49.518;11.280;2023-04-25T00:32:07;9.20;90.00
76211;DHT22;65003;49.518;11.280;2023-04-25T00:34:34;9.30;89.50
76211;DHT22;65003;49.518;11.280;2023-04-25T00:37:01;9.50;88.90
76211;DHT22;65003;49.518;11.280;2023-04-25T00:39:27;9.60;88.10
76211;DHT22;65003;49.518;11.280;2023-04-25T00:41:54;9.70;87.90
76211;DHT22;65003;49.518;11.280;2023-04-25T00:44:20;9.80;87.60
76211;DHT22;65003;49.518;11.280;2023-04-25T00:46:47;9.90;87.60
76211;DHT22;65003;49.518;11.280;2023-04-25T00:49:14;9.90;87.50
76211;DHT22;65003;49.518;11.280;2023-04-25T00:51:40;10.00;86.90
76211;DHT22;65003;49.518;11.280;2023-04-25T00:54:07;10.00;86.10
76211;DHT22;65003;49.518;11.280;2023-04-25T00:56:34;10.00;86.00
76211;DHT22;65003;49.518;11.280;2023-04-25T00:59:00;10.00;86.10
76211;DHT22;65003;49.518;11.280;2023-04-25T01:01:27;10.00;87.00
76211;DHT22;65003;49.518;11.280;2023-04-25T01:03:53;10.00;86.50
76211;DHT22;65003;49.518;11.280;2023-04-25T01:06:20;10.10;86.20
76211;DHT22;65003;49.518;11.280;2023-04-25T01:08:47;10.20;86.00
76211;DHT22;65003;49.518;11.280;2023-04-25T01:11:13;10.30;85.80
76211;DHT22;65003;49.518;11.280;2023-04-25T01:13:40;10.30;85.70
76211;DHT22;65003;49.518;11.280;2023-04-25T01:16:06;10.40;85.60
76211;DHT22;65003;49.518;11.280;2023-04-25T01:18:33;10.50;85.30
76211;DHT22;65003;49.518;11.280;2023-04-25T01:21:06;10.40;85.10
76211;DHT22;65003;49.518;11.280;2023-04-25T01:23:29;10.30;86.10
76211;DHT22;65003;49.518;11.280;2023-04-25T01:25:55;10.30;86.20
76211;DHT22;65003;49.518;11.280;2023-04-25T01:28:22;10.50;85.70
76211;DHT22;65003;49.518;11.280;2023-04-25T01:30:49;10.30;86.00
76211;DHT22;65003;49.518;11.280;2023-04-25T01:33:15;10.30;86.30
76211;DHT22;65003;49.518;11.280;2023-04-25T01:35:42;10.10;86.80
76211;DHT22;65003;49.518;11.280;2023-04-25T01:38:08;9.90;87.30
76211;DHT22;65003;49.518;11.280;2023-04-25T01:40:36;9.90;87.50
76211;DHT22;65003;49.518;11.280;2023-04-25T01:43:01;9.90;87.90
76211;DHT22;65003;49.518;11.280;2023-04-25T01:45:28;10.00;88.00
76211;DHT22;65003;49.518;11.280;2023-04-25T01:47:55;9.90;88.20
76211;DHT22;65003;49.518;11.280;2023-04-25T01:50:22;10.00;88.00
76211;DHT22;65003;49.518;11.280;2023-04-25T01:52:48;9.80;88.90
76211;DHT22;65003;49.518;11.280;2023-04-25T01:55:15;9.90;88.90
76211;DHT22;65003;49.518;11.280;2023-04-25T01:57:41;10.20;87.90
76211;DHT22;65003;49.518;11.280;2023-04-25T02:00:09;10.30;87.50
76211;DHT22;65003;49.518;11.280;2023-04-25T02:02:35;10.40;87.10
76211;DHT22;65003;49.518;11.280;2023-04-25T02:05:02;10.30;87.10
76211;DHT22;65003;49.518;11.280;2023-04-25T02:07:29;10.30;88.00
76211;DHT22;65003;49.518;11.280;2023-04-25T02:09:55;10.40;88.00
76211;DHT22;65003;49.518;11.280;2023-04-25T02:12:22;10.40;87.70
76211;DHT22;65003;49.518;11.280;2023-04-25T02:14:48;10.20;88.20
76211;DHT22;65003;49.518;11.280;2023-04-25T02:17:15;10.10;89.10
76211;DHT22;65003;49.518;11.280;2023-04-25T02:19:42;9.90;90.00
76211;DHT22;65003;49.518;11.280;2023-04-25T02:22:08;9.80;90.20
76211;DHT22;65003;49.518;11.280;2023-04-25T02:24:35;9.70;90.50
76211;DHT22;65003;49.518;11.280;2023-04-25T02:27:01;9.60;91.20
76211;DHT22;65003;49.518;11.280;2023-04-25T02:29:28;9.50;91.00
76211;DHT22;65003;49.518;11.280;2023-04-25T02:31:54;9.40;91.30
76211;DHT22;65003;49.518;11.280;2023-04-25T02:34:21;9.40;91.20
76211;DHT22;65003;49.518;11.280;2023-04-25T02:36:48;9.40;91.40
76211;DHT22;65003;49.518;11.280;2023-04-25T02:39:14;9.30;91.50
76211;DHT22;65003;49.518;11.280;2023-04-25T02:41:41;9.40;91.50
76211;DHT22;65003;49.518;11.280;2023-04-25T02:44:07;9.40;91.40
76211;DHT22;65003;49.518;11.280;2023-04-25T02:46:34;9.30;91.40
76211;DHT22;65003;49.518;11.280;2023-04-25T02:49:01;9.30;91.30
76211;DHT22;65003;49.518;11.280;2023-04-25T02:51:27;9.20;91.50
76211;DHT22;65003;49.518;11.280;2023-04-25T02:53:54;9.20;91.40
76211;DHT22;65003;49.518;11.280;2023-04-25T02:56:21;9.20;91.50
76211;DHT22;65003;49.518;11.280;2023-04-25T02:58:47;8.80;91.30
76211;DHT22;65003;49.518;11.280;2023-04-25T03:01:14;9.30;91.30
76211;DHT22;65003;49.518;11.280;2023-04-25T03:03:41;9.30;91.40
76211;DHT22;65003;49.518;11.280;2023-04-25T03:06:07;9.40;91.40
76211;DHT22;65003;49.518;11.280;2023-04-25T03:08:34;9.40;91.20
76211;DHT22;65003;49.518;11.280;2023-04-25T03:11:00;9.30;91.30
76211;DHT22;65003;49.518;11.280;2023-04-25T03:13:27;9.20;91.40
76211;DHT22;65003;49.518;11.280;2023-04-25T03:15:53;9.10;91.60
76211;DHT22;65003;49.518;11.280;2023-04-25T03:18:20;9.10;91.70
76211;DHT22;65003;49.518;11.280;2023-04-25T03:20:47;9.10;91.60
76211;DHT22;65003;49.518;11.280;2023-04-25T03:23:13;9.00;91.80
76211;DHT22;65003;49.518;11.280;2023-04-25T03:25:40;9.10;91.70
76211;DHT22;65003;49.518;11.280;2023-04-25T03:28:06;9.00;91.80
76211;DHT22;65003;49.518;11.280;2023-04-25T03:30:33;8.90;92.00
76211;DHT22;65003;49.518;11.280;2023-04-25T03:33:00;8.90;92.10
76211;DHT22;65003;49.518;11.280;2023-04-25T03:35:26;8.90;92.10
76211;DHT22;65003;49.518;11.280;2023-04-25T03:37:53;9.00;91.90
76211;DHT22;65003;49.518;11.280;2023-04-25T03:40:19;9.00;91.90
76211;DHT22;65003;49.518;11.280;2023-04-25T03:42:46;8.90;91.90
76211;DHT22;65003;49.518;11.280;2023-04-25T03:45:13;8.90;92.00
76211;DHT22;65003;49.518;11.280;2023-04-25T03:47:39;8.90;92.10
76211;DHT22;65003;49.518;11.280;2023-04-25T03:50:06;8.90;92.10
76211;DHT22;65003;49.518;11.280;2023-04-25T03:52:33;8.90;92.20
76211;DHT22;65003;49.518;11.280;2023-04-25T03:55:00;9.00;92.00
76211;DHT22;65003;49.518;11.280;2023-04-25T03:57:26;8.90;92.00
76211;DHT22;65003;49.518;11.280;2023-04-25T03:59:53;8.90;92.20
76211;DHT22;65003;49.518;11.280;2023-04-25T04:02:20;9.00;92.10
76211;DHT22;65003;49.518;11.280;2023-04-25T04:04:47;8.90;92.20
76211;DHT22;65003;49.518;11.280;2023-04-25T04:07:13;8.90;92.30
76211;DHT22;65003;49.518;11.280;2023-04-25T04:09:40;8.90;92.20
76211;DHT22;65003;49.518;11.280;2023-04-25T04:12:07;8.90;92.20
76211;DHT22;65003;49.518;11.280;2023-04-25T04:14:33;8.90;92.20
76211;DHT22;65003;49.518;11.280;2023-04-25T04:17:00;9.00;92.20
76211;DHT22;65003;49.518;11.280;2023-04-25T04:19:26;9.00;91.90
76211;DHT22;65003;49.518;11.280;2023-04-25T04:21:53;8.90;92.00
76211;DHT22;65003;49.518;11.280;2023-04-25T04:24:19;8.90;91.80
76211;DHT22;65003;49.518;11.280;2023-04-25T04:26:47;8.90;91.90
76211;DHT22;65003;49.518;11.280;2023-04-25T04:29:14;8.90;91.80
76211;DHT22;65003;49.518;11.280;2023-04-25T04:31:40;9.00;91.70
76211;DHT22;65003;49.518;11.280;2023-04-25T04:34:07;8.90;91.70
76211;DHT22;65003;49.518;11.280;2023-04-25T04:36:33;8.90;91.90
76211;DHT22;65003;49.518;11.280;2023-04-25T04:39:00;8.90;91.80
76211;DHT22;65003;49.518;11.280;2023-04-25T04:41:27;8.90;92.00
76211;DHT22;65003;49.518;11.280;2023-04-25T04:43:53;8.90;92.30
76211;DHT22;65003;49.518;11.280;2023-04-25T04:46:20;8.80;92.00
76211;DHT22;65003;49.518;11.280;2023-04-25T04:48:47;8.80;92.10
76211;DHT22;65003;49.518;11.280;2023-04-25T04:51:13;8.80;92.10
76211;DHT22;65003;49.518;11.280;2023-04-25T04:53:40;8.90;91.90
76211;DHT22;65003;49.518;11.280;2023-04-25T04:56:07;8.90;91.80
76211;DHT22;65003;49.518;11.280;2023-04-25T04:58:34;8.90;92.10
76211;DHT22;65003;49.518;11.280;2023-04-25T05:01:00;9.10;92.60
76211;DHT22;65003;49.518;11.280;2023-04-25T05:03:27;9.20;92.00
76211;DHT22;65003;49.518;11.280;2023-04-25T05:05:54;9.40;91.70
76211;DHT22;65003;49.518;11.280;2023-04-25T05:08:21;10.10;91.80
76211;DHT22;65003;49.518;11.280;2023-04-25T05:10:48;9.50;91.30
76211;DHT22;65003;49.518;11.280;2023-04-25T05:13:15;9.60;91.00
76211;DHT22;65003;49.518;11.280;2023-04-25T05:15:41;9.60;91.10
76211;DHT22;65003;49.518;11.280;2023-04-25T05:18:08;9.70;90.50
76211;DHT22;65003;49.518;11.280;2023-04-25T05:20:34;9.80;90.30
76211;DHT22;65003;49.518;11.280;2023-04-25T05:23:01;9.80;90.40
76211;DHT22;65003;49.518;11.280;2023-04-25T05:25:28;9.80;90.10
76211;DHT22;65003;49.518;11.280;2023-04-25T05:27:54;9.80;90.60
76211;DHT22;65003;49.518;11.280;2023-04-25T05:30:21;9.70;90.30
76211;DHT22;65003;49.518;11.280;2023-04-25T05:32:48;9.70;90.20
76211;DHT22;65003;49.518;11.280;2023-04-25T05:35:14;9.80;90.30
76211;DHT22;65003;49.518;11.280;2023-04-25T05:37:41;9.80;90.10
76211;DHT22;65003;49.518;11.280;2023-04-25T05:40:08;9.70;90.00
76211;DHT22;65003;49.518;11.280;2023-04-25T05:42:34;9.70;90.00
76211;DHT22;65003;49.518;11.280;2023-04-25T05:45:02;9.70;90.10
76211;DHT22;65003;49.518;11.280;2023-04-25T05:47:27;9.70;89.70
76211;DHT22;65003;49.518;11.280;2023-04-25T05:49:54;9.80;89.70
76211;DHT22;65003;49.518;11.280;2023-04-25T05:52:21;9.80;88.70
76211;DHT22;65003;49.518;11.280;2023-04-25T05:54:48;10.00;89.50
76211;DHT22;65003;49.518;11.280;2023-04-25T05:57:22;10.00;88.80
76211;DHT22;65003;49.518;11.280;2023-04-25T05:59:47;9.90;88.80
76211;DHT22;65003;49.518;11.280;2023-04-25T06:02:14;9.90;88.90
76211;DHT22;65003;49.518;11.280;2023-04-25T06:04:40;9.90;89.10
76211;DHT22;65003;49.518;11.280;2023-04-25T06:07:07;9.90;89.40
76211;DHT22;65003;49.518;11.280;2023-04-25T06:09:33;9.90;89.00
76211;DHT22;65003;49.518;11.280;2023-04-25T06:12:00;9.90;89.20
76211;DHT22;65003;49.518;11.280;2023-04-25T06:14:27;9.90;89.10
76211;DHT22;65003;49.518;11.280;2023-04-25T06:16:53;9.90;89.10
76211;DHT22;65003;49.518;11.280;2023-04-25T06:19:22;9.90;89.20
76211;DHT22;65003;49.518;11.280;2023-04-25T06:21:48;9.80;89.30
76211;DHT22;65003;49.518;11.280;2023-04-25T06:24:15;9.80;89.70
76211;DHT22;65003;49.518;11.280;2023-04-25T06:26:41;9.70;90.00
76211;DHT22;65003;49.518;11.280;2023-04-25T06:29:08;9.60;90.00
76211;DHT22;65003;49.518;11.280;2023-04-25T06:31:35;9.60;90.20
76211;DHT22;65003;49.518;11.280;2023-04-25T06:34:01;9.50;90.20
76211;DHT22;65003;49.518;11.280;2023-04-25T06:36:28;9.50;90.30
76211;DHT22;65003;49.518;11.280;2023-04-25T06:38:54;9.60;90.30
76211;DHT22;65003;49.518;11.280;2023-04-25T06:41:21;9.50;90.00
76211;DHT22;65003;49.518;11.280;2023-04-25T06:43:47;9.40;90.00
76211;DHT22;65003;49.518;11.280;2023-04-25T06:46:14;9.40;90.20
76211;DHT22;65003;49.518;11.280;2023-04-25T06:48:41;9.50;90.40
76211;DHT22;65003;49.518;11.280;2023-04-25T06:51:07;9.60;90.40
76211;DHT22;65003;49.518;11.280;2023-04-25T06:53:34;9.70;90.20
76211;DHT22;65003;49.518;11.280;2023-04-25T06:56:00;9.70;90.40
76211;DHT22;65003;49.518;11.280;2023-04-25T06:58:27;9.90;90.20
76211;DHT22;65003;49.518;11.280;2023-04-25T07:00:53;9.90;90.00
76211;DHT22;65003;49.518;11.280;2023-04-25T07:03:20;9.80;90.10
76211;DHT22;65003;49.518;11.280;2023-04-25T07:05:47;9.80;90.50
76211;DHT22;65003;49.518;11.280;2023-04-25T07:08:13;9.80;90.00
76211;DHT22;65003;49.518;11.280;2023-04-25T07:10:40;9.70;90.00
76211;DHT22;65003;49.518;11.280;2023-04-25T07:13:06;9.50;90.40
76211;DHT22;65003;49.518;11.280;2023-04-25T07:15:33;9.50;90.70
76211;DHT22;65003;49.518;11.280;2023-04-25T07:18:00;9.60;90.40
76211;DHT22;65003;49.518;11.280;2023-04-25T07:20:26;9.60;90.10
76211;DHT22;65003;49.518;11.280;2023-04-25T07:22:53;9.60;89.00
76211;DHT22;65003;49.518;11.280;2023-04-25T07:25:19;9.60;89.20
76211;DHT22;65003;49.518;11.280;2023-04-25T07:27:46;9.70;90.00
76211;DHT22;65003;49.518;11.280;2023-04-25T07:30:13;9.70;90.00
76211;DHT22;65003;49.518;11.280;2023-04-25T07:32:39;9.70;90.20
76211;DHT22;65003;49.518;11.280;2023-04-25T07:35:06;9.90;90.10
76211;DHT22;65003;49.518;11.280;2023-04-25T07:37:33;10.00;90.10
76211;DHT22;65003;49.518;11.280;2023-04-25T07:39:59;10.20;88.10
76211;DHT22;65003;49.518;11.280;2023-04-25T07:42:26;10.10;88.90
76211;DHT22;65003;49.518;11.280;2023-04-25T07:44:52;9.80;88.70
76211;DHT22;65003;49.518;11.280;2023-04-25T07:47:19;9.60;90.10
76211;DHT22;65003;49.518;11.280;2023-04-25T07:49:46;9.20;87.70
76211;DHT22;65003;49.518;11.280;2023-04-25T07:52:12;9.00;89.20
76211;DHT22;65003;49.518;11.280;2023-04-25T07:54:39;8.90;89.00
76211;DHT22;65003;49.518;11.280;2023-04-25T07:57:06;8.90;89.30
76211;DHT22;65003;49.518;11.280;2023-04-25T07:59:32;8.90;90.00
76211;DHT22;65003;49.518;11.280;2023-04-25T08:01:59;9.00;89.20
76211;DHT22;65003;49.518;11.280;2023-04-25T08:04:26;9.00;89.10
76211;DHT22;65003;49.518;11.280;2023-04-25T08:06:52;9.10;87.60
76211;DHT22;65003;49.518;11.280;2023-04-25T08:09:19;9.00;87.80
76211;DHT22;65003;49.518;11.280;2023-04-25T08:11:46;9.00;88.60
76211;DHT22;65003;49.518;11.280;2023-04-25T08:14:12;9.20;88.30
76211;DHT22;65003;49.518;11.280;2023-04-25T08:16:39;9.20;87.90
76211;DHT22;65003;49.518;11.280;2023-04-25T08:19:05;9.40;87.60
76211;DHT22;65003;49.518;11.280;2023-04-25T08:21:32;9.60;84.50
76211;DHT22;65003;49.518;11.280;2023-04-25T08:23:59;9.80;85.40
76211;DHT22;65003;49.518;11.280;2023-04-25T08:26:26;10.10;84.10
76211;DHT22;65003;49.518;11.280;2023-04-25T08:28:52;10.50;84.10
76211;DHT22;65003;49.518;11.280;2023-04-25T08:31:19;10.70;81.80
76211;DHT22;65003;49.518;11.280;2023-04-25T08:33:46;11.00;81.00
76211;DHT22;65003;49.518;11.280;2023-04-25T08:36:12;11.20;78.70
76211;DHT22;65003;49.518;11.280;2023-04-25T08:38:39;11.20;78.20
76211;DHT22;65003;49.518;11.280;2023-04-25T08:41:05;11.40;78.60
76211;DHT22;65003;49.518;11.280;2023-04-25T08:43:32;11.50;78.50
76211;DHT22;65003;49.518;11.280;2023-04-25T08:45:59;11.70;78.90
76211;DHT22;65003;49.518;11.280;2023-04-25T08:48:27;11.70;77.90
76211;DHT22;65003;49.518;11.280;2023-04-25T08:50:53;11.70;77.30
76211;DHT22;65003;49.518;11.280;2023-04-25T08:53:22;10.70;77.70
76211;DHT22;65003;49.518;11.280;2023-04-25T08:55:48;11.70;79.00
76211;DHT22;65003;49.518;11.280;2023-04-25T08:58:15;11.70;77.50
76211;DHT22;65003;49.518;11.280;2023-04-25T09:00:41;11.90;77.50
76211;DHT22;65003;49.518;11.280;2023-04-25T09:03:08;12.40;76.50
76211;DHT22;65003;49.518;11.280;2023-04-25T09:05:35;12.90;74.70
76211;DHT22;65003;49.518;11.280;2023-04-25T09:08:01;14.50;71.00
76211;DHT22;65003;49.518;11.280;2023-04-25T09:10:28;16.30;64.70
76211;DHT22;65003;49.518;11.280;2023-04-25T09:13:08;17.00;59.40
76211;DHT22;65003;49.518;11.280;2023-04-25T09:15:33;17.20;58.40
76211;DHT22;65003;49.518;11.280;2023-04-25T09:17:59;18.10;57.00
76211;DHT22;65003;49.518;11.280;2023-04-25T09:20:26;18.70;51.90
76211;DHT22;65003;49.518;11.280;2023-04-25T09:23:01;18.70;52.70
76211;DHT22;65003;49.518;11.280;2023-04-25T09:25:27;19.50;49.90
76211;DHT22;65003;49.518;11.280;2023-04-25T09:27:54;19.80;46.50
76211;DHT22;65003;49.518;11.280;2023-04-25T09:30:29;20.00;46.10
76211;DHT22;65003;49.518;11.280;2023-04-25T09:32:47;22.00;42.80
76211;DHT22;65003;49.518;11.280;2023-04-25T09:35:23;25.10;35.90
76211;DHT22;65003;49.518;11.280;2023-04-25T09:37:40;24.40;35.30
76211;DHT22;65003;49.518;11.280;2023-04-25T09:40:07;22.90;38.40
76211;DHT22;65003;49.518;11.280;2023-04-25T09:42:33;21.30;40.70
76211;DHT22;65003;49.518;11.280;2023-04-25T09:45:00;20.20;43.50
76211;DHT22;65003;49.518;11.280;2023-04-25T09:47:27;19.80;45.20
76211;DHT22;65003;49.518;11.280;2023-04-25T09:49:54;19.30;45.70
76211;DHT22;65003;49.518;11.280;2023-04-25T09:52:21;18.30;48.20
76211;DHT22;65003;49.518;11.280;2023-04-25T09:54:47;17.30;50.50
76211;DHT22;65003;49.518;11.280;2023-04-25T09:57:15;16.50;52.50
76211;DHT22;65003;49.518;11.280;2023-04-25T09:59:44;16.40;52.20
76211;DHT22;65003;49.518;11.280;2023-04-25T10:02:09;17.00;50.20
76211;DHT22;65003;49.518;11.280;2023-04-25T10:04:36;19.90;46.20
76211;DHT22;65003;49.518;11.280;2023-04-25T10:07:05;23.10;38.50
76211;DHT22;65003;49.518;11.280;2023-04-25T10:09:30;24.60;35.50
76211;DHT22;65003;49.518;11.280;2023-04-25T10:11:56;27.10;31.20
76211;DHT22;65003;49.518;11.280;2023-04-25T10:14:23;27.20;29.20
76211;DHT22;65003;49.518;11.280;2023-04-25T10:16:50;25.80;30.70
76211;DHT22;65003;49.518;11.280;2023-04-25T10:19:16;23.70;35.00
76211;DHT22;65003;49.518;11.280;2023-04-25T10:21:51;22.70;36.00
76211;DHT22;65003;49.518;11.280;2023-04-25T10:24:16;22.00;37.30
76211;DHT22;65003;49.518;11.280;2023-04-25T10:26:43;20.90;39.50
76211;DHT22;65003;49.518;11.280;2023-04-25T10:29:09;19.40;41.30
76211;DHT22;65003;49.518;11.280;2023-04-25T10:31:44;17.90;45.40
76211;DHT22;65003;49.518;11.280;2023-04-25T10:34:02;16.70;47.90
76211;DHT22;65003;49.518;11.280;2023-04-25T10:36:31;15.90;51.10
76211;DHT22;65003;49.518;11.280;2023-04-25T10:38:58;15.30;51.40
76211;DHT22;65003;49.518;11.280;2023-04-25T10:41:24;14.90;53.70
76211;DHT22;65003;49.518;11.280;2023-04-25T10:43:58;14.60;54.20
76211;DHT22;65003;49.518;11.280;2023-04-25T10:46:25;14.30;54.40
76211;DHT22;65003;49.518;11.280;2023-04-25T10:48:52;14.00;53.20
76211;DHT22;65003;49.518;11.280;2023-04-25T10:51:19;14.40;54.60
76211;DHT22;65003;49.518;11.280;2023-04-25T10:53:56;18.00;48.90
76211;DHT22;65003;49.518;11.280;2023-04-25T10:56:23;22.10;37.20
76211;DHT22;65003;49.518;11.280;2023-04-25T10:58:49;23.30;33.30
76211;DHT22;65003;49.518;11.280;2023-04-25T11:01:19;22.50;33.20
76211;DHT22;65003;49.518;11.280;2023-04-25T11:03:43;21.00;34.30
76211;DHT22;65003;49.518;11.280;2023-04-25T11:06:29;18.90;37.90
76211;DHT22;65003;49.518;11.280;2023-04-25T11:08:54;17.40;41.40
76211;DHT22;65003;49.518;11.280;2023-04-25T11:11:21;16.10;45.00
76211;DHT22;65003;49.518;11.280;2023-04-25T11:13:48;15.30;47.60
76211;DHT22;65003;49.518;11.280;2023-04-25T11:16:14;14.80;50.10
76211;DHT22;65003;49.518;11.280;2023-04-25T11:18:41;14.50;52.20
76211;DHT22;65003;49.518;11.280;2023-04-25T11:21:07;14.20;53.30
76211;DHT22;65003;49.518;11.280;2023-04-25T11:23:34;14.00;54.70
76211;DHT22;65003;49.518;11.280;2023-04-25T11:26:00;13.80;54.10
76211;DHT22;65003;49.518;11.280;2023-04-25T11:28:27;14.00;54.30
76211;DHT22;65003;49.518;11.280;2023-04-25T11:30:53;14.10;55.20
76211;DHT22;65003;49.518;11.280;2023-04-25T11:33:23;14.20;54.50
76211;DHT22;65003;49.518;11.280;2023-04-25T11:35:50;14.30;54.70
76211;DHT22;65003;49.518;11.280;2023-04-25T11:38:16;14.20;54.20
76211;DHT22;65003;49.518;11.280;2023-04-25T11:40:43;14.10;54.80
76211;DHT22;65003;49.518;11.280;2023-04-25T11:43:09;14.00;54.40
76211;DHT22;65003;49.518;11.280;2023-04-25T11:45:37;13.80;55.30
76211;DHT22;65003;49.518;11.280;2023-04-25T11:48:03;13.80;56.00
76211;DHT22;65003;49.518;11.280;2023-04-25T11:50:31;13.60;55.30
76211;DHT22;65003;49.518;11.280;2023-04-25T11:52:57;13.30;56.30
76211;DHT22;65003;49.518;11.280;2023-04-25T11:55:24;13.10;57.20
76211;DHT22;65003;49.518;11.280;2023-04-25T11:57:51;13.10;55.80
76211;DHT22;65003;49.518;11.280;2023-04-25T12:00:18;13.10;54.40
76211;DHT22;65003;49.518;11.280;2023-04-25T12:02:46;13.20;54.90
76211;DHT22;65003;49.518;11.280;2023-04-25T12:05:12;13.30;54.30
76211;DHT22;65003;49.518;11.280;2023-04-25T12:07:39;13.50;55.20
76211;DHT22;65003;49.518;11.280;2023-04-25T12:10:08;13.90;53.10
76211;DHT22;65003;49.518;11.280;2023-04-25T12:12:34;14.40;52.10
76211;DHT22;65003;49.518;11.280;2023-04-25T12:15:09;14.90;51.10
76211;DHT22;65003;49.518;11.280;2023-04-25T12:17:35;15.20;47.90
76211;DHT22;65003;49.518;11.280;2023-04-25T12:20:05;14.90;47.50
76211;DHT22;65003;49.518;11.280;2023-04-25T12:22:28;14.40;48.20
76211;DHT22;65003;49.518;11.280;2023-04-25T12:24:54;14.30;48.50
76211;DHT22;65003;49.518;11.280;2023-04-25T12:27:21;14.00;48.30
76211;DHT22;65003;49.518;11.280;2023-04-25T12:29:51;13.80;49.30
76211;DHT22;65003;49.518;11.280;2023-04-25T12:32:17;13.90;51.00
76211;DHT22;65003;49.518;11.280;2023-04-25T12:34:43;14.00;50.10
76211;DHT22;65003;49.518;11.280;2023-04-25T12:37:10;14.20;49.40
76211;DHT22;65003;49.518;11.280;2023-04-25T12:39:37;14.20;48.90
76211;DHT22;65003;49.518;11.280;2023-04-25T12:42:03;14.30;49.30
76211;DHT22;65003;49.518;11.280;2023-04-25T12:44:30;14.00;49.20
76211;DHT22;65003;49.518;11.280;2023-04-25T12:46:56;13.80;50.50
76211;DHT22;65003;49.518;11.280;2023-04-25T12:49:23;13.60;50.60
76211;DHT22;65003;49.518;11.280;2023-04-25T12:51:50;13.60;51.00
76211;DHT22;65003;49.518;11.280;2023-04-25T12:54:16;13.70;51.80
76211;DHT22;65003;49.518;11.280;2023-04-25T12:56:43;13.60;50.90
76211;DHT22;65003;49.518;11.280;2023-04-25T12:59:10;13.60;52.10
76211;DHT22;65003;49.518;11.280;2023-04-25T13:01:36;13.60;51.70
76211;DHT22;65003;49.518;11.280;2023-04-25T13:04:03;13.50;50.80
76211;DHT22;65003;49.518;11.280;2023-04-25T13:06:30;13.50;51.80
76211;DHT22;65003;49.518;11.280;2023-04-25T13:08:57;13.50;53.00
76211;DHT22;65003;49.518;11.280;2023-04-25T13:11:24;13.50;51.60
76211;DHT22;65003;49.518;11.280;2023-04-25T13:13:51;13.50;51.80
76211;DHT22;65003;49.518;11.280;2023-04-25T13:16:17;13.50;53.00
76211;DHT22;65003;49.518;11.280;2023-04-25T13:18:44;13.30;53.10
76211;DHT22;65003;49.518;11.280;2023-04-25T13:21:11;13.20;53.40
76211;DHT22;65003;49.518;11.280;2023-04-25T13:23:37;13.30;53.20
76211;DHT22;65003;49.518;11.280;2023-04-25T13:26:04;13.20;53.90
76211;DHT22;65003;49.518;11.280;2023-04-25T13:28:30;13.20;53.80
76211;DHT22;65003;49.518;11.280;2023-04-25T13:30:57;13.20;53.70
76211;DHT22;65003;49.518;11.280;2023-04-25T13:33:24;13.30;52.70
76211;DHT22;65003;49.518;11.280;2023-04-25T13:35:51;13.40;53.60
76211;DHT22;65003;49.518;11.280;2023-04-25T13:38:17;13.40;53.30
76211;DHT22;65003;49.518;11.280;2023-04-25T13:40:44;13.20;53.20
76211;DHT22;65003;49.518;11.280;2023-04-25T13:43:10;13.00;54.40
76211;DHT22;65003;49.518;11.280;2023-04-25T13:45:37;12.70;55.30
76211;DHT22;65003;49.518;11.280;2023-04-25T13:48:03;12.60;55.50
76211;DHT22;65003;49.518;11.280;2023-04-25T13:50:30;12.60;55.80
76211;DHT22;65003;49.518;11.280;2023-04-25T13:52:56;12.60;56.00
76211;DHT22;65003;49.518;11.280;2023-04-25T13:55:23;12.70;55.50
76211;DHT22;65003;49.518;11.280;2023-04-25T13:57:50;12.80;55.70
76211;DHT22;65003;49.518;11.280;2023-04-25T14:00:17;12.90;54.60
76211;DHT22;65003;49.518;11.280;2023-04-25T14:02:43;12.90;54.90
76211;DHT22;65003;49.518;11.280;2023-04-25T14:05:10;12.80;55.30
76211;DHT22;65003;49.518;11.280;2023-04-25T14:07:36;12.70;55.30
76211;DHT22;65003;49.518;11.280;2023-04-25T14:10:03;12.70;55.00
76211;DHT22;65003;49.518;11.280;2023-04-25T14:12:30;12.70;54.50
76211;DHT22;65003;49.518;11.280;2023-04-25T14:14:57;12.60;54.70
76211;DHT22;65003;49.518;11.280;2023-04-25T14:17:24;12.60;56.30
76211;DHT22;65003;49.518;11.280;2023-04-25T14:19:51;12.60;55.40
76211;DHT22;65003;49.518;11.280;2023-04-25T14:22:17;12.70;55.50
76211;DHT22;65003;49.518;11.280;2023-04-25T14:24:44;12.70;54.70
76211;DHT22;65003;49.518;11.280;2023-04-25T14:27:11;12.70;53.80
76211;DHT22;65003;49.518;11.280;2023-04-25T14:29:37;12.50;54.60
76211;DHT22;65003;49.518;11.280;2023-04-25T14:32:04;12.50;55.10
76211;DHT22;65003;49.518;11.280;2023-04-25T14:34:31;12.40;54.70
76211;DHT22;65003;49.518;11.280;2023-04-25T14:36:57;12.40;55.80
76211;DHT22;65003;49.518;11.280;2023-04-25T14:39:24;12.20;55.40
76211;DHT22;65003;49.518;11.280;2023-04-25T14:41:50;12.00;55.20
76211;DHT22;65003;49.518;11.280;2023-04-25T14:44:17;11.80;56.30
76211;DHT22;65003;49.518;11.280;2023-04-25T14:46:43;11.50;57.60
76211;DHT22;65003;49.518;11.280;2023-04-25T14:49:10;11.30;59.70
76211;DHT22;65003;49.518;11.280;2023-04-25T14:51:37;11.10;62.70
76211;DHT22;65003;49.518;11.280;2023-04-25T14:54:03;11.00;64.40
76211;DHT22;65003;49.518;11.280;2023-04-25T14:56:30;10.90;65.60
76211;DHT22;65003;49.518;11.280;2023-04-25T14:58:56;10.90;65.50
76211;DHT22;65003;49.518;11.280;2023-04-25T15:01:23;11.10;66.50
76211;DHT22;65003;49.518;11.280;2023-04-25T15:03:50;11.20;66.00
76211;DHT22;65003;49.518;11.280;2023-04-25T15:06:16;11.40;64.00
76211;DHT22;65003;49.518;11.280;2023-04-25T15:08:43;11.50;63.40
76211;DHT22;65003;49.518;11.280;2023-04-25T15:11:09;11.70;63.20
76211;DHT22;65003;49.518;11.280;2023-04-25T15:13:36;11.60;61.90
76211;DHT22;65003;49.518;11.280;2023-04-25T15:16:03;11.50;61.70
76211;DHT22;65003;49.518;11.280;2023-04-25T15:18:29;11.30;62.80